createdAt,value
2018-01-16T00:01:13.895Z,99793.28
2018-01-16T00:03:41.441Z,99801.63
2018-01-16T00:06:08.994Z,99797.95
2018-01-16T00:08:36.577Z,99786.55
2018-01-16T00:11:04.402Z,99781.98
2018-01-16T00:13:31.950Z,99781.59
2018-01-16T00:15:59.490Z,99766.75
2018-01-16T00:18:27.146Z,99760.41
2018-01-16T00:20:54.738Z,99761.73
2018-01-16T00:23:22.366Z,99786.47
2018-01-16T00:25:50.111Z,99781.13
2018-01-16T00:28:17.662Z,99778.63
2018-01-16T00:30:45.213Z,99757.69
2018-01-16T00:33:12.793Z,99748.48
2018-01-16T00:35:40.422Z,99755.23
2018-01-16T00:38:08.001Z,99750.55
2018-01-16T00:40:35.552Z,99779.72
2018-01-16T00:43:03.108Z,99788.97
2018-01-16T00:45:30.813Z,99772.02
2018-01-16T00:47:58.396Z,99756.38
2018-01-16T00:50:26.145Z,99768.20
2018-01-16T00:52:53.718Z,99774.47
2018-01-16T00:55:21.265Z,99760.08
2018-01-16T00:57:48.993Z,99762.26
2018-01-16T01:00:16.657Z,99748.80
2018-01-16T01:02:44.282Z,99760.28
2018-01-16T01:05:12.094Z,99753.06
2018-01-16T01:07:39.654Z,99755.08
2018-01-16T01:10:07.431Z,99741.16
2018-01-16T01:12:35.147Z,99741.61
2018-01-16T01:15:02.734Z,99744.05
2018-01-16T01:17:30.274Z,99736.85
2018-01-16T01:19:57.904Z,99735.94
2018-01-16T01:22:25.622Z,99731.69
2018-01-16T01:24:53.231Z,99726.58
2018-01-16T01:27:20.792Z,99723.58
2018-01-16T01:29:48.331Z,99724.89
2018-01-16T01:32:16.000Z,99726.59
2018-01-16T01:34:43.539Z,99711.84
2018-01-16T01:37:11.135Z,99713.06
2018-01-16T01:39:38.679Z,99708.53
2018-01-16T01:42:06.222Z,99710.64
2018-01-16T01:44:33.878Z,99719.57
2018-01-16T01:47:01.414Z,99712.42
2018-01-16T01:49:28.982Z,99710.70
2018-01-16T01:51:56.530Z,99714.54
2018-01-16T01:54:24.118Z,99715.45
2018-01-16T01:56:51.826Z,99709.18
2018-01-16T01:59:19.386Z,99708.77
2018-01-16T02:01:46.955Z,99699.06
2018-01-16T02:04:14.497Z,99704.66
2018-01-16T02:06:42.137Z,99706.31
2018-01-16T02:09:09.682Z,99697.39
2018-01-16T02:11:37.225Z,99701.92
2018-01-16T02:14:04.882Z,99699.41
2018-01-16T02:16:32.514Z,99693.47
2018-01-16T02:19:00.327Z,99699.41
2018-01-16T02:21:28.145Z,99708.64
2018-01-16T02:23:55.738Z,99706.48
2018-01-16T02:26:23.480Z,99691.67
2018-01-16T02:28:51.024Z,99678.52
2018-01-16T02:31:18.817Z,99698.85
2018-01-16T02:33:46.543Z,99719.56
2018-01-16T02:36:14.090Z,99706.03
2018-01-16T02:38:41.640Z,99713.67
2018-01-16T02:41:09.190Z,99716.16
2018-01-16T02:43:36.789Z,99702.98
2018-01-16T02:46:04.530Z,99678.14
2018-01-16T02:48:32.067Z,99685.26
2018-01-16T02:50:59.827Z,99689.13
2018-01-16T02:53:27.373Z,99695.58
2018-01-16T02:55:54.980Z,99702.53
2018-01-16T02:58:22.715Z,99699.56
2018-01-16T03:00:50.262Z,99688.18
2018-01-16T03:03:17.806Z,99669.08
2018-01-16T03:05:45.468Z,99677.94
2018-01-16T03:08:13.058Z,99668.67
2018-01-16T03:10:40.598Z,99673.66
2018-01-16T03:13:08.223Z,99684.27
2018-01-16T03:15:35.790Z,99694.73
2018-01-16T03:18:03.557Z,99708.31
2018-01-16T03:20:31.150Z,99690.72
2018-01-16T03:22:58.746Z,99686.96
2018-01-16T03:25:26.290Z,99677.69
2018-01-16T03:27:53.866Z,99681.06
2018-01-16T03:30:21.422Z,99687.38
2018-01-16T03:32:49.166Z,99675.97
2018-01-16T03:35:16.701Z,99667.88
2018-01-16T03:37:44.498Z,99661.52
2018-01-16T03:40:12.070Z,99676.42
2018-01-16T03:42:39.681Z,99655.31
2018-01-16T03:45:07.273Z,99666.28
2018-01-16T03:47:34.821Z,99657.78
2018-01-16T03:50:02.371Z,99655.34
2018-01-16T03:52:29.916Z,99638.89
2018-01-16T03:54:57.469Z,99637.13
2018-01-16T03:57:25.121Z,99614.41
2018-01-16T03:59:52.668Z,99634.08
2018-01-16T04:02:20.222Z,99640.44
2018-01-16T04:04:47.898Z,99628.95
2018-01-16T04:07:15.518Z,99631.40
2018-01-16T04:09:43.130Z,99626.23
2018-01-16T04:12:10.749Z,99624.96
2018-01-16T04:14:38.298Z,99622.85
2018-01-16T04:17:06.082Z,99626.59
2018-01-16T04:19:33.657Z,99629.11
2018-01-16T04:22:01.247Z,99625.70
2018-01-16T04:24:28.794Z,99609.55
2018-01-16T04:26:56.415Z,99599.45
2018-01-16T04:29:24.141Z,99611.52
2018-01-16T04:31:51.850Z,99609.06
2018-01-16T04:34:19.655Z,99596.78
2018-01-16T04:36:47.194Z,99580.34
2018-01-16T04:39:14.946Z,99586.72
2018-01-16T04:41:42.497Z,99586.66
2018-01-16T04:44:10.185Z,99593.00
2018-01-16T04:46:37.797Z,99597.73
2018-01-16T04:49:05.349Z,99596.56
2018-01-16T04:51:32.939Z,99607.82
2018-01-16T04:54:00.486Z,99598.91
2018-01-16T04:56:28.061Z,99588.22
2018-01-16T04:58:55.654Z,99576.74
2018-01-16T05:01:23.194Z,99581.39
2018-01-16T05:03:50.730Z,99582.22
2018-01-16T05:06:18.302Z,99591.88
2018-01-16T05:08:45.845Z,99577.98
2018-01-16T05:11:13.434Z,99583.11
2018-01-16T05:13:40.975Z,99579.70
2018-01-16T05:16:08.522Z,99566.20
2018-01-16T05:18:36.075Z,99569.89
2018-01-16T05:21:03.618Z,99575.98
2018-01-16T05:23:31.290Z,99580.61
2018-01-16T05:25:58.825Z,99580.02
2018-01-16T05:28:26.366Z,99576.21
2018-01-16T05:30:54.017Z,99559.78
2018-01-16T05:33:21.563Z,99554.59
2018-01-16T05:35:49.186Z,99555.01
2018-01-16T05:38:16.875Z,99557.94
2018-01-16T05:40:44.588Z,99567.21
2018-01-16T05:43:12.171Z,99554.61
2018-01-16T05:45:39.774Z,99553.34
2018-01-16T05:48:07.361Z,99554.13
2018-01-16T05:50:34.897Z,99549.59
2018-01-16T05:53:02.444Z,99540.38
2018-01-16T05:55:30.009Z,99539.59
2018-01-16T05:57:57.606Z,99526.21
2018-01-16T06:00:25.336Z,99526.13
2018-01-16T06:02:52.971Z,99526.94
2018-01-16T06:05:20.514Z,99534.58
2018-01-16T06:07:48.062Z,99533.22
2018-01-16T06:10:15.612Z,99539.62
2018-01-16T06:12:43.417Z,99544.33
2018-01-16T06:15:10.957Z,99534.97
2018-01-16T06:17:38.506Z,99526.48
2018-01-16T06:20:06.056Z,99532.80
2018-01-16T06:22:33.678Z,99537.78
2018-01-16T06:25:01.411Z,99541.02
2018-01-16T06:27:29.124Z,99527.83
2018-01-16T06:29:56.741Z,99525.26
2018-01-16T06:32:24.461Z,99519.13
2018-01-16T06:34:52.010Z,99513.86
2018-01-16T06:37:19.661Z,99502.98
2018-01-16T06:39:47.305Z,99512.87
2018-01-16T06:42:14.848Z,99512.01
2018-01-16T06:44:42.411Z,99498.31
2018-01-16T06:47:09.964Z,99498.49
2018-01-16T06:49:37.550Z,99494.57
2018-01-16T06:52:05.094Z,99487.64
2018-01-16T06:54:32.705Z,99488.03
2018-01-16T06:57:00.258Z,99482.95
2018-01-16T06:59:27.794Z,99490.77
2018-01-16T07:01:56.217Z,99481.22
2018-01-16T07:04:23.895Z,99479.60
2018-01-16T07:06:51.611Z,99459.90
2018-01-16T07:09:19.166Z,99475.27
2018-01-16T07:11:46.709Z,99455.72
2018-01-16T07:14:14.472Z,99446.46
2018-01-16T07:16:42.182Z,99437.87
2018-01-16T07:19:09.907Z,99428.45
2018-01-16T07:21:37.462Z,99414.83
2018-01-16T07:24:05.046Z,99418.32
2018-01-16T07:26:32.746Z,99422.23
2018-01-16T07:29:00.375Z,99420.16
2018-01-16T07:31:27.926Z,99418.67
2018-01-16T07:33:55.523Z,99425.05
2018-01-16T07:36:23.071Z,99417.50
2018-01-16T07:38:50.722Z,99405.45
2018-01-16T07:41:18.264Z,99411.25
2018-01-16T07:43:45.834Z,99397.37
2018-01-16T07:46:13.498Z,99390.32
2018-01-16T07:48:41.058Z,99364.98
2018-01-16T07:51:08.682Z,99376.08
2018-01-16T07:53:36.349Z,99373.95
2018-01-16T07:56:04.075Z,99367.31
2018-01-16T07:58:31.629Z,99367.90
2018-01-16T08:00:59.404Z,99369.05
2018-01-16T08:03:27.000Z,99370.75
2018-01-16T08:05:54.573Z,99364.50
2018-01-16T08:08:22.117Z,99362.05
2018-01-16T08:10:49.695Z,99347.51
2018-01-16T08:13:17.282Z,99342.19
2018-01-16T08:15:45.112Z,99339.02
2018-01-16T08:18:12.657Z,99328.73
2018-01-16T08:20:40.216Z,99326.70
2018-01-16T08:23:08.089Z,99302.28
2018-01-16T08:25:35.624Z,99312.11
2018-01-16T08:28:03.391Z,99309.91
2018-01-16T08:30:30.970Z,99308.41
2018-01-16T08:32:58.509Z,99302.56
2018-01-16T08:35:26.195Z,99283.86
2018-01-16T08:37:53.788Z,99263.91
2018-01-16T08:40:21.381Z,99241.70
2018-01-16T08:42:49.147Z,99241.23
2018-01-16T08:45:16.697Z,99241.05
2018-01-16T08:47:44.273Z,99234.52
2018-01-16T08:50:11.818Z,99239.81
2018-01-16T08:52:39.521Z,99250.94
2018-01-16T08:55:07.054Z,99249.64
2018-01-16T08:57:34.853Z,99242.52
2018-01-16T09:00:02.397Z,99237.95
2018-01-16T09:02:29.938Z,99205.83
2018-01-16T09:04:57.563Z,99224.37
2018-01-16T09:07:25.324Z,99222.35
2018-01-16T09:09:52.869Z,99223.33
2018-01-16T09:12:20.421Z,99225.38
2018-01-16T09:14:48.146Z,99216.25
2018-01-16T09:17:15.730Z,99216.55
2018-01-16T09:19:43.334Z,99208.73
2018-01-16T09:22:11.132Z,99200.57
2018-01-16T09:24:38.696Z,99194.59
2018-01-16T09:27:06.429Z,99189.75
2018-01-16T09:29:34.014Z,99189.62
2018-01-16T09:32:01.894Z,99191.81
2018-01-16T09:34:29.430Z,99190.66
2018-01-16T09:36:56.994Z,99196.45
2018-01-16T09:39:24.658Z,99190.83
2018-01-16T09:41:52.301Z,99193.25
2018-01-16T09:44:19.838Z,99186.14
2018-01-16T09:46:47.378Z,99188.81
2018-01-16T09:49:14.927Z,99178.50
2018-01-16T09:51:42.469Z,99184.49
2018-01-16T09:54:10.063Z,99176.78
2018-01-16T09:56:37.594Z,99181.61
2018-01-16T09:59:05.198Z,99183.16
2018-01-16T10:01:32.916Z,99186.22
2018-01-16T10:04:00.462Z,99177.10
2018-01-16T10:06:28.049Z,99178.36
2018-01-16T10:08:55.831Z,99181.35
2018-01-16T10:11:23.386Z,99186.51
2018-01-16T10:13:51.210Z,99185.76
2018-01-16T10:16:18.751Z,99188.67
2018-01-16T10:18:46.334Z,99181.61
2018-01-16T10:21:13.950Z,99191.13
2018-01-16T10:23:41.480Z,99177.61
2018-01-16T10:26:09.088Z,99176.22
2018-01-16T10:28:36.810Z,99169.20
2018-01-16T10:31:04.535Z,99170.94
2018-01-16T10:33:32.151Z,99157.17
2018-01-16T10:35:59.866Z,99164.44
2018-01-16T10:38:27.444Z,99162.13
2018-01-16T10:40:55.163Z,99159.89
2018-01-16T10:43:22.823Z,99161.65
2018-01-16T10:45:50.543Z,99157.19
2018-01-16T10:48:18.095Z,99145.64
2018-01-16T10:50:45.876Z,99151.64
2018-01-16T10:53:13.435Z,99146.19
2018-01-16T10:55:41.027Z,99141.95
2018-01-16T10:58:08.574Z,99134.91
2018-01-16T11:00:36.114Z,99125.01
2018-01-16T11:03:03.863Z,99113.75
2018-01-16T11:05:31.399Z,99108.17
2018-01-16T11:07:58.973Z,99096.44
2018-01-16T11:10:26.617Z,99095.30
2018-01-16T11:12:54.206Z,99080.17
2018-01-16T11:15:21.742Z,99073.20
2018-01-16T11:17:49.294Z,99070.36
2018-01-16T11:20:16.874Z,99064.64
2018-01-16T11:22:44.518Z,99058.81
2018-01-16T11:25:12.111Z,99048.66
2018-01-16T11:27:39.670Z,99042.04
2018-01-16T11:30:07.256Z,99041.80
2018-01-16T11:32:34.859Z,99035.44
2018-01-16T11:35:02.402Z,99040.63
2018-01-16T11:37:30.214Z,99035.66
2018-01-16T11:39:57.930Z,99036.30
2018-01-16T11:42:25.496Z,99030.23
2018-01-16T11:44:53.168Z,99026.58
2018-01-16T11:47:20.705Z,99011.28
2018-01-16T11:49:48.422Z,99002.66
2018-01-16T11:52:15.966Z,99000.13
2018-01-16T11:54:43.639Z,98990.17
2018-01-16T11:57:11.225Z,98984.76
2018-01-16T11:59:38.887Z,98978.52
2018-01-16T12:02:06.507Z,98978.06
2018-01-16T12:04:34.090Z,98962.41
2018-01-16T12:07:01.676Z,98957.44
2018-01-16T12:09:29.289Z,98958.25
2018-01-16T12:11:56.964Z,98953.97
2018-01-16T12:14:24.670Z,98946.53
2018-01-16T12:16:52.303Z,98932.72
2018-01-16T12:19:19.858Z,98916.05
2018-01-16T12:21:47.434Z,98911.36
2018-01-16T12:24:14.966Z,98905.95
2018-01-16T12:26:42.593Z,98902.12
2018-01-16T12:29:10.138Z,98902.17
2018-01-16T12:31:37.686Z,98903.22
2018-01-16T12:34:05.348Z,98909.37
2018-01-16T12:36:32.895Z,98898.25
2018-01-16T12:39:00.563Z,98905.67
2018-01-16T12:41:28.115Z,98913.67
2018-01-16T12:43:55.683Z,98903.19
2018-01-16T12:46:23.270Z,98891.73
2018-01-16T12:48:50.932Z,98883.64
2018-01-16T12:51:18.477Z,98883.59
2018-01-16T12:53:46.170Z,98877.64
2018-01-16T12:56:13.703Z,98869.34
2018-01-16T12:58:41.399Z,98865.91
2018-01-16T13:01:08.930Z,98854.04
2018-01-16T13:03:36.463Z,98856.85
2018-01-16T13:06:04.011Z,98853.17
2018-01-16T13:08:31.602Z,98853.08
2018-01-16T13:10:59.229Z,98850.03
2018-01-16T13:13:26.774Z,98836.23
2018-01-16T13:15:54.327Z,98842.87
2018-01-16T13:18:21.882Z,98835.72
2018-01-16T13:20:49.453Z,98835.81
2018-01-16T13:23:17.034Z,98824.92
2018-01-16T13:25:44.581Z,98833.79
2018-01-16T13:28:12.126Z,98816.05
2018-01-16T13:30:39.707Z,98810.55
2018-01-16T13:33:07.346Z,98807.41
2018-01-16T13:35:35.066Z,98800.74
2018-01-16T13:38:02.696Z,98794.30
2018-01-16T13:40:30.403Z,98801.19
2018-01-16T13:42:58.011Z,98791.05
2018-01-16T13:45:25.630Z,98786.78
2018-01-16T13:47:53.212Z,98782.08
2018-01-16T13:50:20.972Z,98780.58
2018-01-16T13:52:48.504Z,98767.92
2018-01-16T13:55:16.050Z,98763.56
2018-01-16T13:57:43.603Z,98748.25
2018-01-16T14:00:11.206Z,98756.52
2018-01-16T14:02:38.746Z,98749.20
2018-01-16T14:05:06.436Z,98753.26
2018-01-16T14:07:33.986Z,98744.98
2018-01-16T14:10:01.581Z,98746.05
2018-01-16T14:12:29.186Z,98750.93
2018-01-16T14:14:56.710Z,98748.42
2018-01-16T14:17:24.307Z,98743.16
2018-01-16T14:19:52.085Z,98747.80
2018-01-16T14:22:19.618Z,98741.85
2018-01-16T14:24:47.222Z,98742.59
2018-01-16T14:27:14.795Z,98747.73
2018-01-16T14:29:42.343Z,98738.91
2018-01-16T14:32:09.902Z,98734.86
2018-01-16T14:34:37.430Z,98726.63
2018-01-16T14:37:05.213Z,98723.67
2018-01-16T14:39:32.818Z,98715.59
2018-01-16T14:42:00.380Z,98708.48
2018-01-16T14:44:28.001Z,98711.33
2018-01-16T14:46:55.538Z,98715.05
2018-01-16T14:49:23.198Z,98711.70
2018-01-16T14:51:50.725Z,98721.84
2018-01-16T14:54:18.274Z,98718.99
2018-01-16T14:56:45.841Z,98712.75
2018-01-16T14:59:13.406Z,98712.02
2018-01-16T15:01:40.989Z,98697.98
2018-01-16T15:04:08.546Z,98704.60
2018-01-16T15:06:36.162Z,98694.17
2018-01-16T15:09:03.829Z,98699.94
2018-01-16T15:11:31.361Z,98698.24
2018-01-16T15:13:58.964Z,98701.86
2018-01-16T15:16:26.600Z,98681.46
2018-01-16T15:18:54.414Z,98695.07
2018-01-16T15:21:22.231Z,98697.81
2018-01-16T15:23:49.776Z,98694.89
2018-01-16T15:26:17.317Z,98692.70
2018-01-16T15:28:44.867Z,98686.15
2018-01-16T15:31:12.413Z,98682.31
2018-01-16T15:33:40.128Z,98687.86
2018-01-16T15:36:07.732Z,98670.16
2018-01-16T15:38:35.349Z,98667.55
2018-01-16T15:41:02.885Z,98672.50
2018-01-16T15:43:30.622Z,98663.86
2018-01-16T15:45:58.161Z,98663.86
2018-01-16T15:48:25.831Z,98646.72
2018-01-16T15:50:53.388Z,98652.06
2018-01-16T15:53:21.005Z,98637.73
2018-01-16T15:55:48.574Z,98640.12
2018-01-16T15:58:16.202Z,98638.23
2018-01-16T16:00:43.918Z,98631.44
2018-01-16T16:03:11.662Z,98634.61
2018-01-16T16:05:39.341Z,98631.95
2018-01-16T16:08:06.917Z,98619.19
2018-01-16T16:10:34.481Z,98625.28
2018-01-16T16:13:02.198Z,98618.53
2018-01-16T16:15:29.762Z,98624.64
2018-01-16T16:17:57.330Z,98629.16
2018-01-16T16:20:24.948Z,98632.35
2018-01-16T16:22:52.775Z,98619.59
2018-01-16T16:25:20.323Z,98606.45
2018-01-16T16:27:48.010Z,98595.75
2018-01-16T16:30:15.591Z,98594.91
2018-01-16T16:32:43.146Z,98585.11
2018-01-16T16:35:10.736Z,98585.33
2018-01-16T16:37:38.457Z,98582.67
2018-01-16T16:40:06.082Z,98580.59
2018-01-16T16:42:33.727Z,98589.30
2018-01-16T16:45:01.282Z,98585.14
2018-01-16T16:47:28.851Z,98575.48
2018-01-16T16:49:56.571Z,98578.89
2018-01-16T16:52:25.318Z,98583.72
2018-01-16T16:54:52.910Z,98582.97
2018-01-16T16:57:20.469Z,98571.52
2018-01-16T16:59:48.103Z,98582.41
2018-01-16T17:02:15.664Z,98576.42
2018-01-16T17:04:43.261Z,98578.96
2018-01-16T17:07:10.941Z,98561.63
2018-01-16T17:09:38.722Z,98572.12
2018-01-16T17:12:06.294Z,98563.13
2018-01-16T17:14:33.846Z,98565.97
2018-01-16T17:17:01.672Z,98563.62
2018-01-16T17:19:29.230Z,98560.71
2018-01-16T17:21:56.900Z,98557.95
2018-01-16T17:24:24.628Z,98564.88
2018-01-16T17:26:52.230Z,98567.70
2018-01-16T17:29:19.836Z,98564.83
2018-01-16T17:31:47.454Z,98569.05
2018-01-16T17:34:15.010Z,98552.41
2018-01-16T17:36:42.579Z,98545.91
2018-01-16T17:39:10.215Z,98546.05
2018-01-16T17:41:37.863Z,98542.83
2018-01-16T17:44:05.438Z,98533.16
2018-01-16T17:46:33.088Z,98517.66
2018-01-16T17:49:00.674Z,98519.84
2018-01-16T17:51:28.302Z,98526.79
2018-01-16T17:53:55.942Z,98521.46
2018-01-16T17:56:23.543Z,98514.32
2018-01-16T17:58:51.166Z,98505.60
2018-01-16T18:01:18.994Z,98505.40
2018-01-16T18:03:46.604Z,98498.17
2018-01-16T18:06:14.431Z,98496.31
2018-01-16T18:08:42.198Z,98514.84
2018-01-16T18:11:09.822Z,98511.95
2018-01-16T18:13:37.642Z,98498.05
2018-01-16T18:16:05.205Z,98502.61
2018-01-16T18:18:32.763Z,98524.08
2018-01-16T18:21:00.402Z,98501.65
2018-01-16T18:23:27.947Z,98487.41
2018-01-16T18:25:55.568Z,98494.66
2018-01-16T18:28:23.118Z,98499.70
2018-01-16T18:30:50.719Z,98480.93
2018-01-16T18:33:18.627Z,98482.28
2018-01-16T18:35:46.307Z,98481.58
2018-01-16T18:38:13.878Z,98481.48
2018-01-16T18:40:41.492Z,98472.56
2018-01-16T18:43:09.054Z,98464.97
2018-01-16T18:45:36.638Z,98460.58
2018-01-16T18:48:04.205Z,98457.17
2018-01-16T18:50:31.762Z,98447.95
2018-01-16T18:52:59.432Z,98436.91
2018-01-16T18:55:26.994Z,98444.26
2018-01-16T18:57:54.583Z,98436.61
2018-01-16T19:00:22.230Z,98432.47
2018-01-16T19:02:49.812Z,98435.41
2018-01-16T19:05:17.407Z,98427.42
2018-01-16T19:07:44.973Z,98424.23
2018-01-16T19:10:12.534Z,98419.53
2018-01-16T19:12:40.161Z,98426.59
2018-01-16T19:15:07.859Z,98425.95
2018-01-16T19:17:35.498Z,98425.30
2018-01-16T19:20:03.055Z,98422.18
2018-01-16T19:22:30.605Z,98427.12
2018-01-16T19:24:58.202Z,98422.98
2018-01-16T19:27:25.758Z,98415.68
2018-01-16T19:29:53.393Z,98403.34
2018-01-16T19:32:21.019Z,98406.77
2018-01-16T19:34:48.741Z,98406.81
2018-01-16T19:37:16.345Z,98400.41
2018-01-16T19:39:43.920Z,98407.40
2018-01-16T19:42:11.661Z,98413.48
2018-01-16T19:44:39.234Z,98409.23
2018-01-16T19:47:06.840Z,98407.72
2018-01-16T19:49:34.551Z,98413.44
2018-01-16T19:52:02.234Z,98404.26
2018-01-16T19:54:29.814Z,98401.63
2018-01-16T19:56:57.503Z,98388.98
2018-01-16T19:59:25.152Z,98388.47
2018-01-16T20:01:52.702Z,98389.73
2018-01-16T20:04:20.270Z,98374.86
2018-01-16T20:06:47.850Z,98376.57
2018-01-16T20:09:15.417Z,98379.53
2018-01-16T20:11:43.873Z,98379.11
2018-01-16T20:14:11.595Z,98391.41
2018-01-16T20:16:39.250Z,98375.41
2018-01-16T20:19:06.814Z,98372.17
2018-01-16T20:21:34.371Z,98376.23
2018-01-16T20:24:01.938Z,98373.14
2018-01-16T20:26:29.719Z,98373.60
2018-01-16T20:28:57.434Z,98364.30
2018-01-16T20:31:24.998Z,98357.64
2018-01-16T20:33:52.549Z,98356.14
2018-01-16T20:36:20.391Z,98356.06
2018-01-16T20:38:48.106Z,98355.55
2018-01-16T20:41:15.824Z,98368.89
2018-01-16T20:43:43.389Z,98370.44
2018-01-16T20:46:11.151Z,98371.70
2018-01-16T20:48:38.786Z,98366.52
2018-01-16T20:51:06.358Z,98365.97
2018-01-16T20:53:34.114Z,98375.73
2018-01-16T20:56:01.746Z,98361.55
2018-01-16T20:58:29.551Z,98381.73
2018-01-16T21:00:57.102Z,98369.48
2018-01-16T21:03:24.890Z,98374.45
2018-01-16T21:05:52.703Z,98380.88
2018-01-16T21:08:20.286Z,98388.61
2018-01-16T21:10:48.040Z,98391.80
2018-01-16T21:13:15.606Z,98396.52
2018-01-16T21:15:43.275Z,98407.05
2018-01-16T21:18:10.834Z,98409.83
2018-01-16T21:20:38.509Z,98404.14
2018-01-16T21:23:06.120Z,98408.39
2018-01-16T21:25:33.748Z,98412.36
2018-01-16T21:28:01.526Z,98420.58
2018-01-16T21:30:29.080Z,98423.97
2018-01-16T21:32:56.690Z,98403.09
2018-01-16T21:35:24.245Z,98417.23
2018-01-16T21:37:51.907Z,98417.30
2018-01-16T21:40:19.510Z,98413.83
2018-01-16T21:42:47.066Z,98384.81
2018-01-16T21:45:14.893Z,98385.18
2018-01-16T21:47:42.438Z,98382.44
2018-01-16T21:50:10.226Z,98357.14
2018-01-16T21:52:37.835Z,98363.71
2018-01-16T21:55:05.434Z,98370.53
2018-01-16T21:57:33.144Z,98364.17
2018-01-16T22:00:00.806Z,98367.33
2018-01-16T22:02:28.551Z,98353.95
2018-01-16T22:04:56.101Z,98340.55
2018-01-16T22:07:23.654Z,98335.61
2018-01-16T22:09:51.279Z,98329.00
2018-01-16T22:12:19.087Z,98326.17
2018-01-16T22:14:46.710Z,98342.18
2018-01-16T22:17:14.318Z,98342.23
2018-01-16T22:19:41.886Z,98336.13
2018-01-16T22:22:09.434Z,98364.21
2018-01-16T22:24:37.005Z,98371.70
2018-01-16T22:27:04.569Z,98390.59
2018-01-16T22:29:32.311Z,98388.94
2018-01-16T22:31:59.910Z,98370.78
2018-01-16T22:34:27.647Z,98367.88
2018-01-16T22:36:55.380Z,98370.04
2018-01-16T22:39:23.215Z,98370.70
2018-01-16T22:41:50.792Z,98372.91
2018-01-16T22:44:18.330Z,98368.80
2018-01-16T22:46:46.137Z,98357.43
2018-01-16T22:49:13.856Z,98360.48
2018-01-16T22:51:41.447Z,98352.34
2018-01-16T22:54:09.096Z,98355.09
2018-01-16T22:56:36.701Z,98298.83
2018-01-16T22:59:04.431Z,98347.97
2018-01-16T23:01:31.986Z,98334.63
2018-01-16T23:03:59.763Z,98324.67
2018-01-16T23:06:27.306Z,98328.39
2018-01-16T23:08:54.846Z,98321.38
2018-01-16T23:11:22.518Z,98318.59
2018-01-16T23:13:50.062Z,98321.51
2018-01-16T23:16:17.610Z,98315.55
2018-01-16T23:18:45.149Z,98323.19
2018-01-16T23:21:12.726Z,98323.70
2018-01-16T23:23:40.265Z,98311.74
2018-01-16T23:26:07.818Z,98319.75
2018-01-16T23:28:35.541Z,98321.00
2018-01-16T23:31:03.104Z,98304.82
2018-01-16T23:33:30.876Z,98313.95
2018-01-16T23:35:58.469Z,98304.34
2018-01-16T23:38:26.102Z,98299.80
2018-01-16T23:40:53.656Z,98307.48
2018-01-16T23:43:21.239Z,98313.33
2018-01-16T23:45:48.818Z,98311.91
2018-01-16T23:48:16.374Z,98308.05
2018-01-16T23:50:43.954Z,98304.66
2018-01-16T23:53:11.617Z,98310.88
2018-01-16T23:55:39.198Z,98303.66
2018-01-16T23:58:06.743Z,98311.70
